Tiempo atmosférico en la estación meteorológica de Martinet, Lleida (1038 m.)



Fecha
DESCASC
Temp. máxima en grados centígrados (hora)
DESCASC
Temp. mínima en grados centígrados (hora)
DESCASC
Temp. media en grados centígrados
DESCASC
Racha de viento máxima en m/sg (hora)
DESCASC
Velocidad máxima media en intervalos de 10 minutos(hora)
DESCASC
Precipitaciones diarias en mm
DESCASC
Precipitaciones de 00:00 a 06:00 en mm
DESCASC
Precipitaciones de 06:00 a 12:00 en mm
DESCASC
Precipitaciones de 12:00 a 18:00 en mm
DESCASC
Precipitaciones de 18:00 a 24:00 en mm
DESCASC
31-05-2020 26.8 (16:10) 12.9 (23:20) 19.8 10.28 (22:20) 4.17 (22:20) 11.2 0 0 1.4 9.8
30-05-2020 24.9 (16:00) 7.8 (06:10) 16.3 8.89 (15:30) 4.17 (17:30) 0 0 0 0 0
29-05-2020 26.2 (15:30) 9.1 (04:00) 17.7 8.61 (16:30) 4.17 (16:20) 1.8 0 0 1.8 0
28-05-2020 26.8 (15:30) 9.2 (00:00) 18 10.83 (18:10) 4.72 (18:10) 0 0 0 0 0
27-05-2020 26.7 (15:50) 6.1 (00:00) 16.4 5.28 (13:30) 2.78 (16:10) 1.6 0 0 1.6 0
26-05-2020 27.1 (16:50) 7 (00:00) 17.1 8.61 (18:00) 5 (17:50) -- -- -- 0 0
25-05-2020 25.9 (14:50) 13 (00:00) 19.4 8.89 (22:30) 4.17 (21:10) -- -- -- -- --
24-05-2020 25.9 (16:30) 12.4 (00:00) 19.1 6.67 (18:00) 3.89 (11:20) -- -- -- -- --
23-05-2020 29.1 (15:20) 9.2 (00:00) 19.2 12.22 (20:00) 8.33 (19:50) -- -- -- -- --
22-05-2020 29.4 (14:40) 8.8 (00:00) 19.1 11.67 (15:20) 5 (15:30) -- -- -- -- --
21-05-2020 28.3 (15:30) 6.1 (00:00) 17.2 8.06 (18:30) 3.61 (18:10) 0 0 0 0 0
20-05-2020 26.4 (15:30) 5.5 (00:00) 15.9 8.33 (16:30) 5 (16:20) 0 0 0 0 0
19-05-2020 25.6 (15:30) 3.9 (00:00) 14.8 7.5 (17:20) 3.61 (22:10) 0 0 0 0 0
18-05-2020 22.3 (14:10) 1.9 (00:00) 12.1 10 (17:00) 5.83 (17:00) -- -- -- 0 0
17-05-2020 20.8 (17:20) 5.1 (00:00) 12.9 9.72 (18:20) 5.56 (18:20) -- -- -- -- --
16-05-2020 16.1 (12:40) 7 (00:00) 11.6 11.67 (14:10) 7.5 (14:20) -- -- -- -- --
15-05-2020 18.6 (13:40) 7.4 (00:00) 13 8.89 (19:20) 6.11 (19:20) -- -- -- -- --
14-05-2020 16.1 (11:40) 7.3 (00:00) 11.7 6.39 (12:00) 4.17 (13:10) 0.4 0.2 0 0 0.2
13-05-2020 19 (17:50) 8.7 (00:00) 13.8 8.89 (13:40) 4.17 (15:00) 2 1.2 0.6 0.2 0
12-05-2020 20.4 (15:50) 4.5 (00:00) 12.4 8.33 (20:10) 4.17 (12:40) 0.6 0.2 0 0 0.4
11-05-2020 13.8 (18:40) 7 (00:00) 10.4 8.89 (13:10) 5 (00:10) 2.4 1 0.2 0.6 0.6
10-05-2020 11.7 (00:00) 8.4 (00:00) 10 8.33 (09:20) 5 (23:59) 24.2 0 7.4 15 1.8
09-05-2020 23.4 (17:10) 5.6 (00:00) 14.5 9.17 (15:30) 4.44 (10:00) 0 0 0 0 0
08-05-2020 26.2 (17:10) 8.5 (00:00) 17.4 9.72 (14:00) 5 (14:00) 0 0 0 0 0
07-05-2020 26.6 (15:10) 7.3 (00:00) 17 7.78 (17:10) 3.89 (16:10) 0 0 0 0 0
06-05-2020 26.1 (17:00) 3.1 (00:00) 14.6 10 (20:20) 6.39 (20:20) 0 0 0 0 0
05-05-2020 25 (13:30) 9 (00:00) 17 11.11 (14:30) 5.83 (14:40) 0 0 0 0 0
04-05-2020 28.1 (16:30) 6.9 (00:00) 17.5 11.39 (16:30) 5.56 (14:30) 0 0 0 0 0
03-05-2020 26.2 (16:30) 5.2 (00:00) 15.7 8.61 (18:20) 4.72 (18:30) 0 0 0 0 0

Gráficas

Temp. máximas Temp. mínimas Temp. medias Precipitaciones Rachas de viento máximas Velocidades máximas media en intervalos de 10 minutos

Datos horarios

Fecha y hora oficial Temperatura (ºC) Velocidad del viento (km/h) Dirección del viento Racha (km/h) Dirección de racha Precipitación (mm) Presión (hPa) Tendencia (hPa) Humedad (%)
2020-06-01 23:00:00 12.1 2 Nordeste 9 Norte 0.2 -- -- 95
2020-06-01 22:00:00 12.6 2 Norte 9 Norte 0 -- -- 94
2020-06-01 21:00:00 12.7 8 Nordeste 19 Este 2.6 -- -- 94
2020-06-01 20:00:00 13.5 0 Calma 17 Nordeste 7.6 -- -- 91
2020-06-01 19:00:00 16 6 Nordeste 29 Nordeste 0 -- -- 70
2020-06-01 18:00:00 17.5 21 Este 39 Este 0 -- -- 61
2020-06-01 17:00:00 19.8 21 Este 36 Nordeste 0 -- -- 55
2020-06-01 16:00:00 18.3 21 Este 37 Este 0 -- -- 61
2020-06-01 15:00:00 21.2 7 Oeste 29 Oeste 0 -- -- 50
2020-06-01 14:00:00 22.6 12 Oeste 30 Oeste 0 -- -- 50
2020-06-01 13:00:00 21.3 16 Oeste 32 Oeste 0 -- -- 55
2020-06-01 12:00:00 19.8 12 Oeste 28 Oeste 0 -- -- 59
2020-06-01 11:00:00 17.8 6 Oeste 14 Oeste 0 -- -- 75
2020-06-01 10:00:00 15.5 3 Sudeste 8 Sudeste 0 -- -- 80
2020-06-01 09:00:00 12.2 5 Este 9 Este 0 -- -- 98
2020-06-01 08:00:00 10.7 2 Este 5 Este 0 -- -- 98
2020-06-01 07:00:00 10 0 Calma 6 Nordeste 0 -- -- 97
2020-06-01 06:00:00 10.6 2 Noroeste 4 Noroeste 0 -- -- 94
2020-06-01 05:00:00 11.2 0 Calma 9 Sudoeste 0 -- -- 95
2020-06-01 04:00:00 11.8 2 Norte 4 Norte 0 -- -- 94
2020-06-01 03:00:00 12.3 0 Calma 9 Oeste 0 -- -- 95
2020-06-01 02:00:00 12.5 4 Noroeste 11 Sudoeste 0 -- -- 92
2020-06-01 01:00:00 13.2 4 Oeste 19 Oeste 0.2 -- -- 93
2020-06-01 00:00:00 13.4 7 Oeste 18 Oeste 0.4 -- -- 95
2020-05-31 23:00:00 13.1 8 Noroeste 37 Sudoeste 2 -- -- 89
2020-05-31 22:00:00 13.6 12 Sudoeste 30 Sudoeste 1.2 -- -- 88
2020-05-31 21:00:00 13.9 2 Noroeste 13 Oeste 1.6 -- -- 90
2020-05-31 20:00:00 14.8 4 Noroeste 14 Norte 3.6 -- -- 91
2020-05-31 19:00:00 15.9 4 Sudoeste 23 Noroeste 1 -- -- 87
2020-05-31 18:00:00 17.5 5 Este 28 Este 1.4 -- -- 83
2020-05-31 17:00:00 21.9 8 Norte 31 Norte 0 -- -- 55
2020-05-31 16:00:00 26.4 8 Oeste 28 Oeste 0 -- -- 37
2020-05-31 15:00:00 26 12 Oeste 25 Oeste 0 -- -- 38
2020-05-31 14:00:00 25.2 7 Oeste 22 Oeste 0 -- -- 36
2020-05-31 13:00:00 24.2 7 Sudoeste 19 Oeste 0 -- -- 40
2020-05-31 12:00:00 22.8 7 Oeste 17 Oeste 0 -- -- 46
2020-05-31 11:00:00 20.5 4 Este 8 Este 0 -- -- 57
2020-05-31 10:00:00 17.7 3 Sudeste 9 Este 0 -- -- 71
2020-05-31 09:00:00 15.3 4 Este 7 Sudeste 0 -- -- 79
2020-05-31 08:00:00 13.4 0 Calma 9 Este 0 -- -- 85
2020-05-31 07:00:00 13.2 0 Calma 7 Nordeste 0 -- -- 86
2020-05-31 06:00:00 13.5 0 Calma 5 Noroeste 0 -- -- 83
2020-05-31 05:00:00 13.4 0 Calma 4 Nordeste 0 -- -- 86
2020-05-31 04:00:00 13.3 3 Norte 8 Nordeste 0 -- -- 86
2020-05-31 03:00:00 13.3 3 Norte 6 Norte 0 -- -- 89
2020-05-31 02:00:00 14.1 0 Calma 4 Este 0 -- -- 88
2020-05-31 01:00:00 14.6 0 Calma 7 Norte 0 -- -- 86
2020-05-31 00:00:00 15.1 0 Calma 5 Norte 0 -- -- 82
2020-05-30 23:00:00 15.6 0 Calma 4 Sur 0 -- -- 80
2020-05-30 22:00:00 16.4 0 Calma 8 Sur 0 -- -- 77
2020-05-30 21:00:00 17.1 6 Este 20 Nordeste 0 -- -- 74
2020-05-30 20:00:00 17.4 10 Este 26 Este 0 -- -- 73
2020-05-30 19:00:00 18.5 10 Este 28 Este 0 -- -- 68
2020-05-30 18:00:00 19.5 10 Este 31 Nordeste 0 -- -- 65
2020-05-30 17:00:00 22.7 7 Oeste 25 Oeste 0 -- -- 47
2020-05-30 16:00:00 24.9 12 Oeste 32 Oeste 0 -- -- 43
2020-05-30 15:00:00 23.6 10 Oeste 27 Oeste 0 -- -- 47
2020-05-30 14:00:00 23.3 9 Oeste 25 Oeste 0 -- -- 44
2020-05-30 13:00:00 22.9 12 Oeste 30 Oeste 0 -- -- 47
2020-05-30 12:00:00 21 13 Oeste 23 Oeste 0 -- -- 55
2020-05-30 11:00:00 17.6 3 Sur 8 Sudeste 0 -- -- 66
2020-05-30 10:00:00 15.4 4 Este 13 Este 0 -- -- 74
2020-05-30 09:00:00 11.7 3 Este 8 Este 0 -- -- 89
2020-05-30 08:00:00 9.4 4 Este 14 Este 0 -- -- 97
2020-05-30 07:00:00 8.2 2 Sudeste 6 Sudeste 0 -- -- 98
2020-05-30 06:00:00 7.9 3 Este 5 Nordeste 0 -- -- 95
2020-05-30 05:00:00 8.5 3 Nordeste 5 Nordeste 0 -- -- 94
2020-05-30 04:00:00 9.2 2 Noroeste 6 Nordeste 0 -- -- 93
2020-05-30 03:00:00 9.8 2 Norte 9 Norte 0 -- -- 92
2020-05-30 02:00:00 10.8 2 Norte 6 Norte 0 -- -- 93
2020-05-30 01:00:00 11.3 3 Norte 5 Norte 0 -- -- 90
2020-05-30 00:00:00 12.2 2 Oeste 9 Oeste 0 -- -- 89
2020-05-29 23:00:00 13.3 2 Nordeste 6 Sudoeste 0 -- -- 84
2020-05-29 22:00:00 14.5 3 Nordeste 15 Nordeste 0 -- -- 79
2020-05-29 21:00:00 15.5 8 Nordeste 18 Nordeste 0 -- -- 75
2020-05-29 20:00:00 15.5 2 Sudeste 23 Este 0 -- -- 84
2020-05-29 19:00:00 15.3 5 Este 27 Este 0 -- -- 74
2020-05-29 18:00:00 17.1 7 Nordeste 23 Nordeste 1.8 -- -- 79
2020-05-29 17:00:00 21.2 10 Este 31 Este 0 -- -- 50
2020-05-29 16:00:00 24.7 8 Este 26 Este 0 -- -- 43
2020-05-29 15:00:00 25.2 8 Este 15 Este 0 -- -- 34
2020-05-29 14:00:00 24.5 4 Sudeste 13 Este 0 -- -- 36
2020-05-29 13:00:00 24.1 3 Sudeste 10 Nordeste 0 -- -- 32
2020-05-29 12:00:00 21.6 4 Sur 9 Este 0 -- -- 57
2020-05-29 11:00:00 19 4 Este 17 Este 0 -- -- 66
2020-05-29 10:00:00 15.4 6 Este 14 Este 0 -- -- 79
2020-05-29 09:00:00 11.1 4 Este 8 Este 0 -- -- 96
2020-05-29 08:00:00 10 4 Este 7 Este 0 -- -- 98
2020-05-29 07:00:00 9.5 2 Este 9 Este 0 -- -- 98
2020-05-29 06:00:00 9.7 0 Calma 4 Este 0 -- -- 98
2020-05-29 05:00:00 9.7 0 Calma 5 Este 0 -- -- 98
2020-05-29 04:00:00 9.1 0 Calma 3 Sudeste 0 -- -- 95
2020-05-29 03:00:00 9.6 0 Calma 3 Norte 0 -- -- 94
2020-05-29 02:00:00 10.3 0 Calma 4 Nordeste 0 -- -- 93
2020-05-29 01:00:00 11 0 Calma 5 Nordeste 0 -- -- 92
2020-05-29 00:00:00 11.7 0 Calma 9 Norte 0 -- -- 90
2020-05-28 23:00:00 12.6 0 Calma 7 Norte 0 -- -- 87
2020-05-28 22:00:00 13.8 3 Norte 7 Norte 0 -- -- 86
2020-05-28 21:00:00 15.3 2 Este 16 Sur 0 -- -- 81
2020-05-28 20:00:00 16.4 9 Sudoeste 18 Sur 0 -- -- 72
2020-05-28 19:00:00 16.8 3 Este 39 Nordeste 0 -- -- 75
2020-05-28 18:00:00 23.2 6 Oeste 21 Oeste 0 -- -- 48
2020-05-28 17:00:00 22.6 6 Noroeste 31 Oeste 0 -- -- 51
2020-05-28 16:00:00 25.9 9 Oeste 22 Oeste 0 -- -- 38
2020-05-28 15:00:00 26.2 6 Sur 15 Sudoeste 0 -- -- 40
2020-05-28 14:00:00 24.7 5 Oeste 16 Sudoeste 0 -- -- 39
2020-05-28 13:00:00 23.3 7 Oeste 14 Oeste 0 -- -- 48
2020-05-28 12:00:00 21.5 7 Oeste 13 Oeste 0 -- -- 57
2020-05-28 11:00:00 19.1 6 Oeste 13 Oeste 0 -- -- 66
2020-05-28 10:00:00 16.8 5 Nordeste 8 Nordeste 0 -- -- 74
2020-05-28 09:00:00 13 2 Sur 4 Oeste 0 -- -- 87
2020-05-28 08:00:00 10.8 0 Calma 4 Nordeste 0 -- -- 96
2020-05-28 07:00:00 9.4 0 Calma 5 Norte 0 -- -- 95
2020-05-28 06:00:00 9.6 0 Calma 6 Nordeste 0 -- -- 93
2020-05-28 05:00:00 10.4 2 Nordeste 7 Norte 0 -- -- 92
2020-05-28 04:00:00 11.4 2 Noroeste 7 Norte 0 -- -- 91
2020-05-28 03:00:00 12.4 3 Norte 6 Norte 0 -- -- 91
2020-05-28 02:00:00 13.1 0 Calma 4 Noroeste 0 -- -- 91
2020-05-28 01:00:00 13.3 2 Noroeste 6 Norte 0 -- -- 90
2020-05-28 00:00:00 14.1 0 Calma 6 Noroeste 0 -- -- 89
2020-05-27 23:00:00 14.7 0 Calma 4 Noroeste 0 -- -- 92
2020-05-27 22:00:00 15.1 2 Noroeste 5 Oeste 0 -- -- 90
2020-05-27 21:00:00 16 0 Calma 4 Oeste 0 -- -- 90
2020-05-27 20:00:00 16.5 2 Norte 6 Norte 0 -- -- 86
2020-05-27 19:00:00 17.2 0 Calma 9 Norte 0 -- -- 86
2020-05-27 18:00:00 16.9 4 Norte 12 Sudoeste 0.8 -- -- 85
2020-05-27 17:00:00 19.6 5 Oeste 19 Sudoeste 0.8 -- -- 67
2020-05-27 16:00:00 26 6 Oeste 19 Oeste 0 -- -- 41
2020-05-27 15:00:00 26.3 5 Sudoeste 15 Oeste 0 -- -- 41
2020-05-27 14:00:00 25.5 5 Oeste 19 Sudoeste 0 -- -- 43
2020-05-27 13:00:00 24.1 6 Oeste 15 Oeste 0 -- -- 44
2020-05-27 12:00:00 22.5 7 Oeste 17 Oeste 0 -- -- 42
2020-05-27 11:00:00 18.8 3 Sudoeste 7 Sudeste 0 -- -- 45
2020-05-27 10:00:00 15.4 3 Sudeste 13 Este 0 -- -- 53
2020-05-27 09:00:00 11.3 5 Este 14 Este 0 -- -- 78
2020-05-27 08:00:00 8.5 3 Nordeste 5 Nordeste 0 -- -- 87
2020-05-27 07:00:00 6.1 0 Calma 4 Sudeste 0 -- -- 92
2020-05-27 06:00:00 6.8 0 Calma 5 Este 0 -- -- 90
2020-05-27 05:00:00 7.8 0 Calma 5 Este 0 -- -- 92
2020-05-27 04:00:00 8.6 0 Calma 5 Nordeste 0 -- -- 88
2020-05-27 03:00:00 9.7 0 Calma 8 Norte 0 -- -- 83
2020-05-27 02:00:00 10.8 4 Norte 11 Norte 0 -- -- 79
2020-05-27 01:00:00 12 5 Norte 12 Noroeste 0 -- -- 78
2020-05-27 00:00:00 13.7 5 Norte 15 Este 0 -- -- 76
2020-05-26 23:00:00 15.6 5 Norte 12 Nordeste 0 -- -- 70
2020-05-26 22:00:00 17.9 7 Este 22 Este 0 -- -- 62
2020-05-26 21:00:00 19.4 6 Este 15 Nordeste 0 -- -- 58
2020-05-26 20:00:00 21.3 5 Nordeste 18 Norte 0 -- -- 52
2020-05-26 19:00:00 24.2 5 Este 26 Este 0 -- -- 40
2020-05-26 18:00:00 24.7 15 Este 31 Este 0 -- -- 33
2020-05-26 17:00:00 26.8 12 Este 30 Nordeste 0 -- -- 33
2020-05-26 16:00:00 26.6 8 Este 21 Este 0 -- -- 31
2020-05-26 15:00:00 25.7 11 Nordeste 20 Nordeste 0 -- -- 31
2020-05-26 14:00:00 25.1 5 Este 18 Este 0 -- -- 32
2020-05-26 13:00:00 23.9 4 Sudeste 17 Nordeste 0 -- -- 34
2020-05-26 12:00:00 21.6 4 Oeste 9 Sudoeste 0 -- -- 52
2020-05-26 11:00:00 19.5 4 Sudeste 10 Este 0.2 -- -- 53
2020-05-26 10:00:00 -- 4 Sudeste 7 Sudeste 0 -- -- --
2020-05-26 09:00:00 11.7 3 Sudeste 7 Este 0 -- -- 84
2020-05-26 08:00:00 9.3 2 Nordeste 5 Nordeste 0 -- -- 94
2020-05-26 07:00:00 7 0 Calma 6 Este 0 -- -- 95
2020-05-26 06:00:00 7.6 4 Este 9 Nordeste 0 -- -- 94
2020-05-26 05:00:00 8.1 0 Calma 4 Noroeste 0 -- -- 93
2020-05-26 04:00:00 8.9 0 Calma 5 Nordeste 0 -- -- 91
2020-05-26 03:00:00 9.9 0 Calma 5 Norte 0 -- -- 87
2020-05-26 02:00:00 10.6 2 Oeste 8 Norte 0 -- -- 86
2020-05-26 01:00:00 11.7 4 Norte 10 Noroeste 0 -- -- 82
2020-05-26 00:00:00 13 5 Norte 14 Nordeste 0 -- -- 78
2020-05-25 23:00:00 16 7 Nordeste 32 Este 0 -- -- 62
2020-05-25 22:00:00 17.4 15 Este 29 Este 0 -- -- 56
2020-05-25 21:00:00 19.2 6 Nordeste 18 Oeste 0 -- -- 57
2020-05-25 20:00:00 20.3 5 Oeste 23 Oeste 0 -- -- 64
2020-05-25 19:00:00 21.9 9 Oeste 21 Oeste 0 -- -- 60
2020-05-25 18:00:00 21.8 5 Nordeste 12 Oeste 0 -- -- 56
2020-05-25 17:00:00 23.9 7 Oeste 15 Oeste 0 -- -- 52
2020-05-25 16:00:00 22.6 6 Oeste 29 Oeste 0 -- -- 57
2020-05-25 15:00:00 25.9 11 Oeste 25 Oeste 0 -- -- 48
2020-05-25 14:00:00 25 10 Oeste 25 Oeste 0 -- -- 49
2020-05-25 13:00:00 23.1 10 Oeste 25 Oeste 0 -- -- 55
2020-05-25 12:00:00 22.9 9 Oeste 20 Oeste 0 -- -- 56
2020-05-25 11:00:00 21 8 Oeste 15 Sudoeste 0 -- -- 65
2020-05-25 10:00:00 18.1 3 Sur 6 Sur 0 -- -- 73
2020-05-25 09:00:00 15.2 0 Calma 4 Sudoeste 0 -- -- 75
2020-05-25 08:00:00 14.3 0 Calma 4 Sudeste 0 -- -- 81
2020-05-25 07:00:00 14 2 Sudeste 13 Este 0 -- -- 80
2020-05-25 06:00:00 13.8 0 Calma 9 Nordeste 0 -- -- 80
2020-05-25 05:00:00 14.2 0 Calma 5 Este 0 -- -- 76
2020-05-25 04:00:00 14.6 2 Sudoeste 11 Este 0 -- -- 77
2020-05-25 03:00:00 14.9 0 Calma 4 Nordeste 0 -- -- 75
2020-05-25 02:00:00 15.1 0 Calma 9 Este 0 -- -- 74
2020-05-25 01:00:00 15.3 2 Sudeste 12 Este 0 -- -- 70
2020-05-25 00:00:00 15.9 3 Nordeste 18 Este 0.2 -- -- 67
2020-05-24 23:00:00 16.8 7 Nordeste 20 Nordeste 0 -- -- 61
2020-05-24 22:00:00 18.5 9 Este 17 Este 0 -- -- 63
2020-05-24 21:00:00 19.7 3 Norte 21 Este 0 -- -- 64
2020-05-24 20:00:00 22.1 7 Este 20 Nordeste 0 -- -- 58
2020-05-24 19:00:00 23.6 5 Nordeste 21 Este 0 -- -- 54
2020-05-24 18:00:00 25.1 8 Sudoeste 24 Oeste 0 -- -- 48
2020-05-24 17:00:00 25.8 6 Oeste 20 Oeste 0 -- -- 46
2020-05-24 16:00:00 24.7 5 Oeste 19 Oeste 0 -- -- 49
2020-05-24 15:00:00 23.6 5 Oeste 15 Oeste 0 -- -- 55
2020-05-24 14:00:00 21.1 7 Oeste 16 Oeste 0.2 -- -- 61
2020-05-24 13:00:00 20.7 3 Nordeste 12 Este 0 -- -- 65
2020-05-24 12:00:00 20.1 5 Este 21 Este 0 -- -- 68
2020-05-24 11:00:00 18.1 7 Este 15 Este 0.2 -- -- 75
2020-05-24 10:00:00 14.9 3 Sur 20 Este 0 -- -- 86
2020-05-24 09:00:00 13.2 11 Nordeste 19 Este 0.2 -- -- 86
2020-05-24 08:00:00 12.9 0 Calma 4 Noroeste 0 -- -- 96
2020-05-24 07:00:00 12.5 0 Calma 5 Nordeste 0.2 -- -- 95
2020-05-24 06:00:00 13 0 Calma 5 Este 0.2 -- -- 95
2020-05-24 05:00:00 13.1 0 Calma 3 Este 0.2 -- -- 96
2020-05-24 04:00:00 13 0 Calma 3 Este 0.2 -- -- 96
2020-05-24 03:00:00 12.9 0 Calma 5 Este 0.4 -- -- 95
2020-05-24 02:00:00 12.7 0 Calma 6 Norte 0.6 -- -- 95
2020-05-24 01:00:00 12.4 2 Este 21 Nordeste 0.8 -- -- 94
2020-05-24 00:00:00 12.7 5 Este 30 Este 1.2 -- -- 92
2020-05-23 23:00:00 14.7 4 Nordeste 23 Este 0 -- -- 72
2020-05-23 22:00:00 15.7 5 Nordeste 32 Este 0 -- -- 66
2020-05-23 21:00:00 16.5 9 Nordeste 40 Este 0 -- -- 64
2020-05-23 20:00:00 19.1 29 Este 44 Este 0 -- -- 58
2020-05-23 19:00:00 26.5 8 Sudoeste 27 Sudoeste 0 -- -- 40
2020-05-23 18:00:00 28 8 Oeste 26 Noroeste 0 -- -- 38
2020-05-23 17:00:00 26.7 12 Sudoeste 28 Sudoeste 0 -- -- 38
2020-05-23 16:00:00 27.8 18 Sudoeste 32 Sudoeste 0 -- -- 35
2020-05-23 15:00:00 28.6 10 Sudoeste 28 Oeste 0 -- -- 36
2020-05-23 14:00:00 27.4 13 Oeste 28 Oeste 0 -- -- 38
2020-05-23 13:00:00 26.8 9 Oeste 19 Oeste 0 -- -- 40
2020-05-23 12:00:00 24.9 5 Oeste 12 Oeste 0 -- -- 44
2020-05-23 11:00:00 21.7 4 Sur 9 Sudeste 0 -- -- 54
2020-05-23 10:00:00 18 3 Este 7 Este 0 -- -- 70
2020-05-23 09:00:00 13.6 3 Este 5 Este 0 -- -- 85
2020-05-23 08:00:00 11.4 3 Este 5 Este 0 -- -- 94
2020-05-23 07:00:00 9.2 2 Sudeste 8 Este 0 -- -- 94
2020-05-23 06:00:00 9.7 2 Nordeste 3 Nordeste 0 -- -- 92
2020-05-23 05:00:00 10.2 2 Oeste 5 Sudeste 0 -- -- 90
2020-05-23 04:00:00 11 0 Calma 4 Nordeste 0 -- -- 87
2020-05-23 03:00:00 12.1 0 Calma 6 Nordeste 0 -- -- 83
2020-05-23 02:00:00 13 0 Calma 4 Norte 0 -- -- 79
2020-05-23 01:00:00 14 0 Calma 5 Este 0 -- -- 74
2020-05-23 00:00:00 15.5 2 Noroeste 6 Oeste 0 -- -- 67
2020-05-22 23:00:00 17 3 Noroeste 9 Norte 0 -- -- 59
2020-05-22 22:00:00 18.7 3 Norte 8 Nordeste 0 -- -- 52
2020-05-22 21:00:00 21.8 4 Noroeste 17 Oeste 0 -- -- 43
2020-05-22 20:00:00 24.8 7 Sudoeste 21 Sudoeste 0 -- -- 37
2020-05-22 19:00:00 26.7 10 Sudoeste 25 Noroeste 0 -- -- 36
2020-05-22 18:00:00 27.3 5 Sur 18 Sudoeste 0 -- -- 38
2020-05-22 17:00:00 25.9 11 Nordeste 26 Sudoeste 0 -- -- 43
2020-05-22 16:00:00 25 17 Sudoeste 42 Sudoeste 0 -- -- 44
2020-05-22 15:00:00 28.2 6 Sudoeste 15 Sudoeste 0 -- -- 36
2020-05-22 14:00:00 28.9 6 Oeste 14 Oeste 0 -- -- 37
2020-05-22 13:00:00 27.7 6 Sudoeste 13 Sudoeste 0 -- -- 31
2020-05-22 12:00:00 24.6 3 Sur 11 Nordeste 0 -- -- 47
2020-05-22 11:00:00 22 5 Este 13 Este 0 -- -- 54
2020-05-22 10:00:00 18.2 9 Este 17 Este 0 -- -- 63
2020-05-22 09:00:00 12.6 2 Sudeste 5 Este 0 -- -- 89
2020-05-22 08:00:00 10.3 0 Calma 5 Nordeste 0 -- -- 95
2020-05-22 07:00:00 8.9 2 Este 4 Este 0 -- -- 95
2020-05-22 06:00:00 9.4 0 Calma 4 Este 0 -- -- 93
2020-05-22 05:00:00 10 0 Calma 4 Norte 0 -- -- 92
2020-05-22 04:00:00 10.6 2 Este 4 Nordeste 0 -- -- 91
2020-05-22 03:00:00 11.4 0 Calma 4 Nordeste 0 -- -- 88
2020-05-22 02:00:00 12.5 0 Calma 6 Nordeste 0 -- -- 84
2020-05-22 01:00:00 13.7 3 Nordeste 8 Norte 0 -- -- 78
2020-05-22 00:00:00 14.9 3 Norte 9 Noroeste 0 -- -- 74
2020-05-21 23:00:00 16.3 3 Norte 9 Norte 0 -- -- 69
2020-05-21 22:00:00 18.4 4 Norte 9 Este 0 -- -- 64
2020-05-21 21:00:00 21.8 3 Este 14 Este 0 -- -- 55
2020-05-21 20:00:00 25 4 Norte 20 Oeste 0 -- -- 48
2020-05-21 19:00:00 26.5 11 Oeste 29 Oeste 0 -- -- 37
2020-05-21 18:00:00 27.9 7 Sudoeste 18 Oeste 0 -- -- 33
2020-05-21 17:00:00 27.5 3 Nordeste 10 Sudoeste 0 -- -- 29
2020-05-21 16:00:00 28 5 Oeste 24 Oeste 0 -- -- 25
2020-05-21 15:00:00 27.7 8 Oeste 18 Oeste 0 -- -- 29
2020-05-21 14:00:00 26.5 5 Sudoeste 12 Sudoeste 0 -- -- 30
2020-05-21 13:00:00 24.9 6 Sudoeste 13 Sur 0 -- -- 30
2020-05-21 12:00:00 22.9 3 Sur 13 Este 0 -- -- 36
2020-05-21 11:00:00 20.1 7 Este 15 Este 0 -- -- 48
2020-05-21 10:00:00 16.6 5 Este 16 Este 0 -- -- 58
2020-05-21 09:00:00 10.6 3 Sudeste 7 Nordeste 0 -- -- 81
2020-05-21 08:00:00 8.4 2 Nordeste 8 Este 0 -- -- 87
2020-05-21 07:00:00 6.1 2 Sur 5 Nordeste 0 -- -- 94
2020-05-21 06:00:00 6.6 2 Nordeste 4 Nordeste 0 -- -- 90
2020-05-21 05:00:00 7.5 0 Calma 5 Nordeste 0 -- -- 89
2020-05-21 04:00:00 8.6 2 Nordeste 5 Nordeste 0 -- -- 86
2020-05-21 03:00:00 9.4 2 Este 6 Nordeste 0 -- -- 87
2020-05-21 02:00:00 10.7 3 Nordeste 7 Norte 0 -- -- 79
2020-05-21 01:00:00 12.1 0 Calma 7 Nordeste 0 -- -- 73
2020-05-21 00:00:00 13.4 3 Norte 8 Norte 0 -- -- 67
2020-05-20 23:00:00 15.2 3 Norte 6 Oeste 0 -- -- 60
2020-05-20 22:00:00 16.8 4 Noroeste 13 Nordeste 0 -- -- 55
2020-05-20 21:00:00 20.3 6 Nordeste 20 Este 0 -- -- 44
2020-05-20 20:00:00 22.9 12 Este 28 Este 0 -- -- 34
2020-05-20 19:00:00 25.5 4 Este 26 Este 0 -- -- 30
2020-05-20 18:00:00 25.2 15 Este 27 Este 0 -- -- 28
2020-05-20 17:00:00 25.5 15 Este 30 Nordeste 0 -- -- 28
2020-05-20 16:00:00 25.9 14 Este 29 Nordeste 0 -- -- 28
2020-05-20 15:00:00 26.1 5 Sudoeste 27 Nordeste 0 -- -- 31
2020-05-20 14:00:00 24.8 9 Este 25 Este 0 -- -- 29
2020-05-20 13:00:00 24.2 14 Este 24 Este 0 -- -- 28
2020-05-20 12:00:00 22.7 13 Este 20 Este 0 -- -- 27
2020-05-20 11:00:00 19.1 4 Sudeste 12 Este 0 -- -- 40
2020-05-20 10:00:00 14.9 3 Sudoeste 8 Nordeste 0 -- -- 60
2020-05-20 09:00:00 11 4 Este 9 Este 0 -- -- 74
2020-05-20 08:00:00 7.7 3 Este 11 Este 0 -- -- 86
2020-05-20 07:00:00 5.5 3 Sur 7 Este 0 -- -- 93
2020-05-20 06:00:00 6.5 2 Norte 6 Norte 0 -- -- 86
2020-05-20 05:00:00 7.3 4 Oeste 8 Oeste 0 -- -- 84
2020-05-20 04:00:00 8 3 Noroeste 6 Norte 0 -- -- 83
2020-05-20 03:00:00 8.8 2 Norte 9 Este 0 -- -- 80
2020-05-20 02:00:00 9.6 3 Oeste 6 Oeste 0 -- -- 75
2020-05-20 01:00:00 10.5 3 Sudoeste 12 Noroeste 0 -- -- 73
2020-05-20 00:00:00 12 3 Noroeste 11 Norte 0 -- -- 66
2020-05-19 23:00:00 13.5 5 Norte 27 Este 0 -- -- 60
2020-05-19 22:00:00 16.6 10 Este 23 Este 0 -- -- 49
2020-05-19 21:00:00 18.4 8 Nordeste 23 Este 0 -- -- 41
2020-05-19 20:00:00 21.1 6 Norte 21 Norte 0 -- -- 33
2020-05-19 19:00:00 23.8 4 Norte 24 Este 0 -- -- 29
2020-05-19 18:00:00 23.9 9 Este 27 Sudeste 0 -- -- 28
2020-05-19 17:00:00 25.2 10 Sudeste 24 Este 0 -- -- 27
2020-05-19 16:00:00 25.4 6 Sudeste 17 Sudoeste 0 -- -- 29
2020-05-19 15:00:00 25 4 Sudeste 21 Noroeste 0 -- -- 27
2020-05-19 14:00:00 24.6 5 Noroeste 22 Nordeste 0 -- -- 28
2020-05-19 13:00:00 24 7 Este 19 Este 0 -- -- 35
2020-05-19 12:00:00 22.3 6 Este 17 Sudeste 0 -- -- 36
2020-05-19 11:00:00 19.9 6 Sudeste 15 Este 0 -- -- 41
2020-05-19 10:00:00 14.6 3 Sur 8 Este 0 -- -- 56
2020-05-19 09:00:00 9.9 4 Nordeste 11 Norte 0 -- -- 74
2020-05-19 08:00:00 6 4 Oeste 7 Nordeste 0 -- -- 90
2020-05-19 07:00:00 4 0 Calma 6 Sudoeste 0 -- -- 92
2020-05-19 06:00:00 4.2 2 Noroeste 6 Norte 0 -- -- 90
2020-05-19 05:00:00 5 3 Este 5 Norte 0 -- -- 86
2020-05-19 04:00:00 5.6 2 Este 6 Norte 0 -- -- 84
2020-05-19 03:00:00 6.6 5 Norte 9 Norte 0 -- -- 79
2020-05-19 02:00:00 7.5 0 Calma 8 Oeste 0 -- -- 74
2020-05-19 01:00:00 8.7 3 Noroeste 13 Noroeste 0 -- -- 70
2020-05-19 00:00:00 10.7 3 Noroeste 24 Este 0 -- -- 62
2020-05-18 23:00:00 13.1 8 Nordeste 24 Nordeste 0 -- -- 53
2020-05-18 22:00:00 15.2 7 Este 22 Este 0 -- -- 43
2020-05-18 21:00:00 16.3 7 Nordeste 20 Nordeste 0 -- -- 40
2020-05-18 20:00:00 18.2 6 Norte 26 Nordeste 0 -- -- 38
2020-05-18 19:00:00 20.8 6 Norte 21 Norte 0 -- -- 36
2020-05-18 18:00:00 21.3 5 Sudeste 31 Este 0 -- -- 35
2020-05-18 17:00:00 21.8 21 Este 36 Nordeste 0 -- -- 34
2020-05-18 16:00:00 22.2 12 Este 33 Sur 0 -- -- 35
2020-05-18 15:00:00 20.3 14 Sudeste 34 Sudeste 0 -- -- 34
2020-05-18 14:00:00 22 7 Sudeste 22 Este 0 -- -- 32
2020-05-18 13:00:00 21.2 5 Nordeste 23 Este 0 -- -- 30
2020-05-18 12:00:00 19.4 7 Este 18 Este 0 -- -- 35
2020-05-18 11:00:00 15.7 4 Sur 11 Sur 0 -- -- 49
2020-05-18 10:00:00 11.5 3 Sur 14 Nordeste 0 -- -- 60
2020-05-18 09:00:00 7.4 3 Este 8 Este 0 -- -- 80
2020-05-18 08:00:00 3.8 0 Calma 5 Nordeste 0 -- -- 93
2020-05-18 07:00:00 1.9 0 Calma 5 Nordeste 0 -- -- 94
2020-05-18 06:00:00 2.5 4 Nordeste 5 Este 0 -- -- 92
2020-05-18 05:00:00 3 2 Sur 5 Nordeste 0 -- -- 89
2020-05-18 04:00:00 4.1 2 Noroeste 5 Norte 0 -- -- 83
2020-05-18 03:00:00 4.9 0 Calma 5 Norte 0 -- -- 83
2020-05-18 02:00:00 6.3 3 Norte 13 Norte 0 -- -- 74
2020-05-18 01:00:00 7.8 3 Norte 13 Noroeste 0 -- -- 69
2020-05-18 00:00:00 9.7 2 Norte 25 Este 0 -- -- 61
2020-05-17 23:00:00 11.8 10 Este 26 Este 0 -- -- 53
2020-05-17 22:00:00 13.1 10 Este 25 Este 0 -- -- 47
2020-05-17 21:00:00 14.8 12 Nordeste 30 Nordeste 0 -- -- 37
2020-05-17 20:00:00 17 7 Norte 25 Nordeste 0 -- -- 31
2020-05-17 19:00:00 18.7 9 Nordeste 35 Este 0 -- -- 29
2020-05-17 18:00:00 20.2 10 Este 31 Este 0 -- -- 27
2020-05-17 17:00:00 20.4 14 Este 27 Este 0 -- -- 27
2020-05-17 16:00:00 20.3 13 Nordeste 30 Nordeste 0 -- -- 29
2020-05-17 15:00:00 19.6 13 Este 26 Nordeste 0 -- -- 28
2020-05-17 14:00:00 19.2 10 Este 25 Este 0 -- -- 30
2020-05-17 13:00:00 19 10 Este 27 Este 0 -- -- 32
2020-05-17 12:00:00 17.9 11 Este 24 Este 0 -- -- 38
2020-05-17 11:00:00 16.6 3 Sudeste 10 Nordeste 0 -- -- 46
2020-05-17 10:00:00 14.7 8 Este 19 Nordeste 0 -- -- 55
2020-05-17 09:00:00 9 4 Sudeste 6 Este 0 -- -- 84
2020-05-17 08:00:00 6.6 0 Calma 8 Sudeste 0 -- -- 92
2020-05-17 07:00:00 5.9 3 Noroeste 9 Nordeste 0 -- -- 91
2020-05-17 06:00:00 5.4 4 Oeste 9 Sur 0 -- -- 94
2020-05-17 05:00:00 5.2 2 Noroeste 6 Norte 0 -- -- 92
2020-05-17 04:00:00 5.6 3 Nordeste 6 Norte 0 -- -- 91
2020-05-17 03:00:00 6.4 2 Oeste 8 Norte 0 -- -- 87
2020-05-17 02:00:00 7.2 3 Oeste 8 Noroeste 0 -- -- 83
2020-05-17 01:00:00 8.2 4 Oeste 13 Nordeste 0 -- -- 79
2020-05-17 00:00:00 9.7 9 Este 18 Este 0 -- -- 67
2020-05-16 23:00:00 10.8 12 Este 24 Este 0 -- -- 61
2020-05-16 22:00:00 11 10 Este 28 Este 0 -- -- 60
2020-05-16 21:00:00 11.6 7 Este 28 Este 0 -- -- 63
2020-05-16 20:00:00 12.8 11 Este 36 Este 0 -- -- 58
2020-05-16 19:00:00 13.7 8 Nordeste 30 Este 0.2 -- -- 56
2020-05-16 18:00:00 14 7 Nordeste 27 Nordeste 0 -- -- 56
2020-05-16 17:00:00 13.9 10 Este 36 Este 0 -- -- 60
2020-05-16 16:00:00 13.3 16 Este 35 Este 0 -- -- 61
2020-05-16 15:00:00 13.3 18 Este 42 Este 0 -- -- 65
2020-05-16 14:00:00 14.8 20 Este 38 Este 0 -- -- 64
2020-05-16 13:00:00 15.9 17 Este 26 Este 0 -- -- 59
2020-05-16 12:00:00 14.2 10 Este 20 Este 0 -- -- 68
2020-05-16 11:00:00 13.5 4 Nordeste 9 Norte 0 -- -- 71
2020-05-16 10:00:00 10.4 3 Sudoeste 6 Sudoeste 0 -- -- 86
2020-05-16 09:00:00 8.5 0 Calma 4 Sur 0 -- -- 95
2020-05-16 08:00:00 7.5 0 Calma 5 Este 0 -- -- 98
2020-05-16 07:00:00 7 0 Calma 6 Nordeste 0 -- -- 97
2020-05-16 06:00:00 7.2 2 Este 6 Nordeste 0 -- -- 97
2020-05-16 05:00:00 7.1 0 Calma 10 Este 0.2 -- -- 96
2020-05-16 04:00:00 7.5 2 Norte 5 Norte 0 -- -- 96
2020-05-16 03:00:00 8.1 0 Calma 21 Este 0 -- -- 95
2020-05-16 02:00:00 8.9 9 Este 14 Este 0 -- -- 95
2020-05-16 01:00:00 9.2 2 Nordeste 10 Nordeste 0 -- -- 94
2020-05-16 00:00:00 9.7 3 Oeste 5 Noroeste 0 -- -- 94
2020-05-15 23:00:00 10 0 Calma 14 Oeste 0 -- -- 92
2020-05-15 22:00:00 11 3 Norte 17 Nordeste 0 -- -- 81
2020-05-15 21:00:00 11.2 8 Nordeste 23 Este 0 -- -- 81
2020-05-15 20:00:00 12.1 13 Este 32 Este 0 -- -- 79
2020-05-15 19:00:00 14.1 17 Este 30 Este 0 -- -- 72
2020-05-15 18:00:00 15 6 Este 29 Este 0 -- -- 75
2020-05-15 17:00:00 15.6 6 Oeste 29 Sudoeste 0 -- -- 72
2020-05-15 16:00:00 18.1 5 Sudeste 14 Sudeste 0 -- -- 57
2020-05-15 15:00:00 17 4 Norte 15 Noroeste 0 -- -- 65
2020-05-15 14:00:00 18.2 9 Oeste 20 Sudoeste 0.2 -- -- 58
2020-05-15 13:00:00 17.2 5 Sur 16 Este 0 -- -- 60
2020-05-15 12:00:00 15.1 5 Nordeste 13 Sur 0 -- -- 73
2020-05-15 11:00:00 11.8 4 Este 15 Este 0 -- -- 85
2020-05-15 10:00:00 10.7 3 Este 5 Este 0 -- -- 89
2020-05-15 09:00:00 8.8 2 Oeste 4 Oeste 0 -- -- 97
2020-05-15 08:00:00 8 0 Calma 2 Sudoeste 0 -- -- 98
2020-05-15 07:00:00 7.7 0 Calma 5 Noroeste 0 -- -- 98
2020-05-15 06:00:00 7.5 0 Calma 4 Nordeste 0 -- -- 98
2020-05-15 05:00:00 7.5 0 Calma 4 Nordeste 0 -- -- 97
2020-05-15 04:00:00 7.5 0 Calma 6 Oeste 0 -- -- 96
2020-05-15 03:00:00 7.8 3 Oeste 5 Oeste 0 -- -- 96
2020-05-15 02:00:00 8 0 Calma 5 Norte 0 -- -- 97
2020-05-15 01:00:00 8.2 2 Noroeste 6 Oeste 0 -- -- 96
2020-05-15 00:00:00 8.3 2 Noroeste 6 Noroeste 0 -- -- 96
2020-05-14 23:00:00 8.6 3 Noroeste 8 Oeste 0.2 -- -- 95
2020-05-14 22:00:00 9.1 4 Oeste 8 Oeste 0 -- -- 95
2020-05-14 21:00:00 9.6 3 Oeste 7 Oeste 0 -- -- 94
2020-05-14 20:00:00 10.1 4 Oeste 8 Oeste 0 -- -- 93
2020-05-14 19:00:00 10.5 3 Oeste 6 Oeste 0 -- -- 93
2020-05-14 18:00:00 10.5 0 Calma 4 Sur 0 -- -- 94
2020-05-14 17:00:00 10.3 0 Calma 13 Este 0 -- -- 91
2020-05-14 16:00:00 10.8 3 Este 9 Este 0 -- -- 90
2020-05-14 15:00:00 11.5 4 Nordeste 17 Nordeste 0 -- -- 90
2020-05-14 14:00:00 13.7 0 Calma 21 Este 0 -- -- 76
2020-05-14 13:00:00 15.6 12 Este 23 Este 0 -- -- 58
2020-05-14 12:00:00 15.7 14 Este 23 Este 0 -- -- 59
2020-05-14 11:00:00 14 4 Sur 15 Este 0 -- -- 70
2020-05-14 10:00:00 11.3 3 Este 8 Este 0 -- -- 81
2020-05-14 09:00:00 10.1 2 Este 8 Nordeste 0 -- -- 87
2020-05-14 08:00:00 8.6 0 Calma 6 Norte 0 -- -- 97
2020-05-14 07:00:00 7.3 0 Calma 4 Norte 0 -- -- 95
2020-05-14 06:00:00 8 0 Calma 4 Nordeste 0.2 -- -- 94
2020-05-14 05:00:00 8.2 0 Calma 5 Noroeste 0 -- -- 94
2020-05-14 04:00:00 8.3 2 Oeste 5 Oeste 0 -- -- 94
2020-05-14 03:00:00 8.3 2 Norte 6 Norte 0 -- -- 93
2020-05-14 02:00:00 9.2 0 Calma 4 Norte 0 -- -- 90
2020-05-14 01:00:00 10.5 3 Norte 6 Oeste 0 -- -- 87
2020-05-14 00:00:00 11 0 Calma 8 Oeste 0 -- -- 85
2020-05-13 23:00:00 11.3 2 Oeste 7 Norte 0 -- -- 83
2020-05-13 22:00:00 12.1 2 Norte 17 Oeste 0 -- -- 74
2020-05-13 21:00:00 14.2 7 Oeste 23 Oeste 0 -- -- 64
2020-05-13 20:00:00 15.8 12 Oeste 23 Oeste 0 -- -- 58
2020-05-13 19:00:00 18.2 11 Oeste 24 Oeste 0 -- -- 51
2020-05-13 18:00:00 19 13 Oeste 24 Oeste 0 -- -- 50
2020-05-13 17:00:00 17.5 10 Sudoeste 29 Oeste 0.2 -- -- 57
2020-05-13 16:00:00 17.8 10 Sudoeste 26 Oeste 0 -- -- 59
2020-05-13 15:00:00 17.2 15 Oeste 29 Oeste 0 -- -- 52
2020-05-13 14:00:00 17.7 7 Oeste 32 Oeste 0 -- -- 55
2020-05-13 13:00:00 14.9 6 Oeste 28 Oeste 0 -- -- 65
2020-05-13 12:00:00 14.4 12 Oeste 24 Oeste 0.2 -- -- 72
2020-05-13 11:00:00 13.1 10 Oeste 23 Oeste 0 -- -- 81
2020-05-13 10:00:00 11.1 7 Oeste 15 Noroeste 0 -- -- 92
2020-05-13 09:00:00 9.7 4 Noroeste 10 Oeste 0.2 -- -- 97
2020-05-13 08:00:00 8.9 6 Noroeste 10 Oeste 0 -- -- 96
2020-05-13 07:00:00 8.8 2 Oeste 7 Este 0.2 -- -- 96
2020-05-13 06:00:00 8.8 3 Este 15 Nordeste 0 -- -- 96
2020-05-13 05:00:00 8.9 3 Este 8 Este 0.2 -- -- 95
2020-05-13 04:00:00 9.2 2 Norte 6 Norte 0.2 -- -- 95
2020-05-13 03:00:00 9.4 3 Este 10 Este 0.2 -- -- 95
2020-05-13 02:00:00 9.8 2 Oeste 12 Nordeste 0.2 -- -- 93
2020-05-13 01:00:00 10.2 6 Nordeste 21 Este 0.4 -- -- 88
2020-05-13 00:00:00 12.3 12 Nordeste 26 Este 0.4 -- -- 77
2020-05-12 23:00:00 13.7 12 Este 23 Nordeste 0 -- -- 68
2020-05-12 22:00:00 13.9 15 Nordeste 28 Nordeste 0 -- -- 70
2020-05-12 21:00:00 14.5 11 Nordeste 30 Nordeste 0 -- -- 70
2020-05-12 20:00:00 15.6 11 Nordeste 29 Este 0 -- -- 68
2020-05-12 19:00:00 18.8 7 Este 15 Este 0 -- -- 50
2020-05-12 18:00:00 18.6 5 Sudoeste 21 Oeste 0 -- -- 52
2020-05-12 17:00:00 18.4 8 Oeste 20 Oeste 0 -- -- 49
2020-05-12 16:00:00 20.2 5 Noroeste 18 Oeste 0 -- -- 45
2020-05-12 15:00:00 17.6 9 Oeste 27 Oeste 0 -- -- 51
2020-05-12 14:00:00 17.5 10 Oeste 23 Oeste 0 -- -- 51
2020-05-12 13:00:00 18.1 10 Oeste 28 Oeste 0 -- -- 50
2020-05-12 12:00:00 16.6 12 Oeste 27 Oeste 0 -- -- 56
2020-05-12 11:00:00 14.3 12 Oeste 24 Oeste 0 -- -- 69
2020-05-12 10:00:00 9.7 3 Oeste 11 Noroeste 0 -- -- 96
2020-05-12 09:00:00 6.8 2 Sur 6 Este 0 -- -- 100
2020-05-12 08:00:00 5.4 2 Este 10 Este 0 -- -- 100
2020-05-12 07:00:00 4.5 3 Nordeste 6 Nordeste 0 -- -- 99
2020-05-12 06:00:00 4.7 0 Calma 4 Nordeste 0 -- -- 99
2020-05-12 05:00:00 4.9 2 Este 5 Nordeste 0 -- -- 97
2020-05-12 04:00:00 5.7 0 Calma 4 Norte 0 -- -- 97
2020-05-12 03:00:00 6.1 0 Calma 4 Norte 0 -- -- 96
2020-05-12 02:00:00 7 0 Calma 5 Norte 0 -- -- 95
2020-05-12 01:00:00 8.2 2 Oeste 6 Norte 0.2 -- -- 94
2020-05-12 00:00:00 9.5 2 Norte 6 Noroeste 0 -- -- 92
2020-05-11 23:00:00 10.7 2 Norte 7 Oeste 0.4 -- -- 92
2020-05-11 22:00:00 11.3 2 Noroeste 9 Noroeste 0 -- -- 89
2020-05-11 21:00:00 11.8 4 Oeste 10 Noroeste 0.2 -- -- 85
2020-05-11 20:00:00 12.8 4 Noroeste 13 Oeste 0 -- -- 83
2020-05-11 19:00:00 13.7 6 Sudoeste 20 Oeste 0 -- -- 75
2020-05-11 18:00:00 13.5 8 Oeste 19 Oeste 0 -- -- 74
2020-05-11 17:00:00 13.4 8 Oeste 21 Oeste 0 -- -- 73
2020-05-11 16:00:00 12.9 10 Oeste 32 Oeste 0 -- -- 76
2020-05-11 15:00:00 11.9 12 Oeste 30 Oeste 0 -- -- 79
2020-05-11 14:00:00 11.4 10 Oeste 32 Sudoeste 0.2 -- -- 85
2020-05-11 13:00:00 11.3 10 Oeste 22 Oeste 0.4 -- -- 87
2020-05-11 12:00:00 11.2 9 Oeste 28 Oeste 0.2 -- -- 89
2020-05-11 11:00:00 10.7 13 Oeste 27 Oeste 0 -- -- 86
2020-05-11 10:00:00 10.6 10 Oeste 21 Oeste 0 -- -- 89
2020-05-11 09:00:00 9.6 7 Oeste 14 Oeste 0 -- -- 98
2020-05-11 08:00:00 8 0 Calma 5 Sudeste 0 -- -- 99
2020-05-11 07:00:00 7.6 0 Calma 11 Oeste 0 -- -- 98
2020-05-11 06:00:00 7.8 4 Noroeste 11 Noroeste 0 -- -- 99
2020-05-11 05:00:00 7.4 0 Calma 9 Noroeste 0 -- -- 98
2020-05-11 04:00:00 7.1 0 Calma 4 Norte 0 -- -- 97
2020-05-11 03:00:00 7.3 0 Calma 3 Sudeste 0 -- -- 97
2020-05-11 02:00:00 7.3 4 Este 9 Este 0.2 -- -- 96
2020-05-11 01:00:00 7.3 8 Este 26 Este 0.8 -- -- 96
2020-05-11 00:00:00 8.4 18 Este 28 Nordeste 0.2 -- -- 92
2020-05-10 23:00:00 9.3 3 Noroeste 8 Oeste 1 -- -- 95
2020-05-10 22:00:00 9.8 3 Noroeste 6 Oeste 0.4 -- -- 94
2020-05-10 21:00:00 10 3 Noroeste 9 Oeste 0.2 -- -- 93
2020-05-10 20:00:00 10.7 5 Noroeste 11 Oeste 0 -- -- 90
2020-05-10 19:00:00 10.8 3 Este 21 Este 0 -- -- 90
2020-05-10 18:00:00 10.7 14 Este 23 Este 0.6 -- -- 87
2020-05-10 17:00:00 11.3 9 Este 17 Este 2.4 -- -- 93
2020-05-10 16:00:00 10.9 6 Este 20 Este 2 -- -- 90
2020-05-10 15:00:00 10.4 5 Nordeste 15 Nordeste 2.2 -- -- 96
2020-05-10 14:00:00 10.5 8 Este 21 Este 3.2 -- -- 96
2020-05-10 13:00:00 11.2 3 Sudoeste 8 Este 4.6 -- -- 97
2020-05-10 12:00:00 11.2 3 Sur 18 Este 4.2 -- -- 96
2020-05-10 11:00:00 11.2 4 Nordeste 24 Nordeste 2.2 -- -- 95
2020-05-10 10:00:00 11.3 2 Sudeste 30 Este 1 -- -- 94
2020-05-10 09:00:00 11.1 5 Este 15 Este 0 -- -- 90
2020-05-10 08:00:00 10.1 5 Este 12 Este 0 -- -- 94
2020-05-10 07:00:00 9.4 3 Sur 13 Este 0 -- -- 96
2020-05-10 06:00:00 9.3 2 Este 10 Norte 0 -- -- 94
2020-05-10 05:00:00 10 2 Noroeste 6 Norte 0 -- -- 94
2020-05-10 04:00:00 10.5 0 Calma 6 Oeste 0 -- -- 92
2020-05-10 03:00:00 10.5 2 Oeste 5 Oeste 0 -- -- 89
2020-05-10 02:00:00 10.8 3 Norte 8 Oeste 0 -- -- 91
2020-05-10 01:00:00 10.9 3 Sudoeste 7 Nordeste 0 -- -- 89
2020-05-10 00:00:00 11.7 4 Oeste 6 Noroeste 0 -- -- 86
2020-05-09 23:00:00 12.8 4 Oeste 6 Oeste 0 -- -- 79
2020-05-09 22:00:00 14.5 3 Norte 13 Oeste 0 -- -- 73
2020-05-09 21:00:00 16.6 3 Sudeste 17 Este 0 -- -- 63
2020-05-09 20:00:00 18 6 Nordeste 15 Nordeste 0 -- -- 58
2020-05-09 19:00:00 20 8 Noroeste 23 Oeste 0 -- -- 55
2020-05-09 18:00:00 21.5 5 Oeste 21 Sudoeste 0 -- -- 44
2020-05-09 17:00:00 23.2 5 Este 32 Este 0 -- -- 36
2020-05-09 16:00:00 21.7 8 Nordeste 33 Nordeste 0 -- -- 37
2020-05-09 15:00:00 20.1 8 Norte 30 Nordeste 0 -- -- 39
2020-05-09 14:00:00 20.6 8 Este 26 Este 0 -- -- 39
2020-05-09 13:00:00 18.7 6 Este 19 Este 0 -- -- 48
2020-05-09 12:00:00 16.2 4 Sur 23 Este 0 -- -- 57
2020-05-09 11:00:00 13.5 13 Este 23 Este 0 -- -- 68
2020-05-09 10:00:00 12.8 16 Este 25 Este 0 -- -- 69
2020-05-09 09:00:00 10.3 3 Sur 18 Oeste 0 -- -- 79
2020-05-09 08:00:00 6.8 4 Oeste 8 Sudoeste 0 -- -- 92
2020-05-09 07:00:00 5.6 0 Calma 5 Nordeste 0 -- -- 88
2020-05-09 06:00:00 6.2 3 Nordeste 9 Este 0 -- -- 84
2020-05-09 05:00:00 6.4 0 Calma 10 Este 0 -- -- 88
2020-05-09 04:00:00 7.2 3 Este 5 Este 0 -- -- 85
2020-05-09 03:00:00 8.3 0 Calma 5 Norte 0 -- -- 72
2020-05-09 02:00:00 9.4 4 Norte 8 Norte 0 -- -- 64
2020-05-09 01:00:00 10.8 0 Calma 8 Norte 0 -- -- 62
2020-05-09 00:00:00 12.5 2 Nordeste 4 Sudeste 0 -- -- 60
2020-05-08 23:00:00 13.1 0 Calma 9 Norte 0 -- -- 56
2020-05-08 22:00:00 15 2 Oeste 12 Noroeste 0 -- -- 56
2020-05-08 21:00:00 18 3 Noroeste 19 Sudoeste 0 -- -- 48
2020-05-08 20:00:00 20.5 9 Oeste 24 Oeste 0 -- -- 39
2020-05-08 19:00:00 23.2 10 Oeste 30 Oeste 0 -- -- 32
2020-05-08 18:00:00 24.1 13 Oeste 33 Oeste 0 -- -- 30
2020-05-08 17:00:00 26 9 Oeste 21 Sudoeste 0 -- -- 25
2020-05-08 16:00:00 25.9 9 Oeste 26 Oeste 0 -- -- 25
2020-05-08 15:00:00 24.9 11 Oeste 28 Oeste 0 -- -- 29
2020-05-08 14:00:00 23.7 18 Oeste 35 Oeste 0 -- -- 37
2020-05-08 13:00:00 23.1 11 Oeste 25 Oeste 0 -- -- 41
2020-05-08 12:00:00 21.7 8 Oeste 18 Oeste 0 -- -- 41
2020-05-08 11:00:00 19.1 4 Noroeste 9 Noroeste 0 -- -- 59
2020-05-08 10:00:00 15.8 4 Sudeste 7 Este 0 -- -- 72
2020-05-08 09:00:00 11.6 2 Sur 5 Este 0 -- -- 89
2020-05-08 08:00:00 9.2 2 Sudoeste 12 Nordeste 0 -- -- 95
2020-05-08 07:00:00 8.7 2 Este 6 Norte 0 -- -- 93
2020-05-08 06:00:00 9.2 0 Calma 4 Oeste 0 -- -- 92
2020-05-08 05:00:00 9.9 0 Calma 5 Norte 0 -- -- 91
2020-05-08 04:00:00 10.8 3 Nordeste 13 Este 0 -- -- 88
2020-05-08 03:00:00 11.2 3 Sudeste 6 Este 0 -- -- 89
2020-05-08 02:00:00 11.7 0 Calma 4 Sur 0 -- -- 86
2020-05-08 01:00:00 12.1 2 Oeste 7 Oeste 0 -- -- 85
2020-05-08 00:00:00 12.9 2 Norte 5 Noroeste 0 -- -- 81
2020-05-07 23:00:00 14.2 2 Noroeste 8 Norte 0 -- -- 77
2020-05-07 22:00:00 16 2 Noroeste 10 Norte 0 -- -- 70
2020-05-07 21:00:00 18.7 3 Oeste 19 Oeste 0 -- -- 60
2020-05-07 20:00:00 20.4 7 Oeste 22 Noroeste 0 -- -- 54
2020-05-07 19:00:00 21.9 13 Oeste 24 Oeste 0 -- -- 49
2020-05-07 18:00:00 22.8 11 Oeste 28 Oeste 0 -- -- 48
2020-05-07 17:00:00 23.5 13 Oeste 27 Oeste 0 -- -- 45
2020-05-07 16:00:00 25.4 10 Oeste 21 Oeste 0 -- -- 39
2020-05-07 15:00:00 26.5 8 Sudoeste 21 Sudoeste 0 -- -- 35
2020-05-07 14:00:00 25.5 8 Sudoeste 19 Oeste 0 -- -- 38
2020-05-07 13:00:00 23.6 10 Oeste 26 Oeste 0 -- -- 42
2020-05-07 12:00:00 21.3 13 Oeste 23 Oeste 0 -- -- 46
2020-05-07 11:00:00 17.3 5 Sur 18 Este 0 -- -- 62
2020-05-07 10:00:00 14.5 12 Este 21 Este 0 -- -- 72
2020-05-07 09:00:00 11.2 2 Este 5 Nordeste 0 -- -- 86
2020-05-07 08:00:00 8.6 0 Calma 3 Este 0 -- -- 95
2020-05-07 07:00:00 7.3 3 Oeste 9 Este 0 -- -- 94
2020-05-07 06:00:00 8 0 Calma 4 Nordeste 0 -- -- 93
2020-05-07 05:00:00 8 0 Calma 4 Nordeste 0 -- -- 91
2020-05-07 04:00:00 8.7 0 Calma 4 Nordeste 0 -- -- 88
2020-05-07 03:00:00 9.7 0 Calma 6 Norte 0 -- -- 85
2020-05-07 02:00:00 10.5 3 Norte 7 Norte 0 -- -- 82
2020-05-07 01:00:00 11.5 4 Norte 8 Norte 0 -- -- 78
2020-05-07 00:00:00 13 3 Norte 12 Este 0 -- -- 72
2020-05-06 23:00:00 15.4 7 Este 18 Nordeste 0 -- -- 62
2020-05-06 22:00:00 16.3 4 Este 24 Este 0 -- -- 61
2020-05-06 21:00:00 18 6 Este 36 Este 0 -- -- 56
2020-05-06 20:00:00 20.9 22 Este 33 Este 0 -- -- 47
2020-05-06 19:00:00 24.5 11 Oeste 23 Oeste 0 -- -- 36
2020-05-06 18:00:00 25.5 11 Oeste 24 Oeste 0 -- -- 33
2020-05-06 17:00:00 26.1 8 Oeste 25 Oeste 0 -- -- 32
2020-05-06 16:00:00 25.9 12 Oeste 25 Oeste 0 -- -- 30
2020-05-06 15:00:00 25.6 8 Noroeste 23 Oeste 0 -- -- 27
2020-05-06 14:00:00 24.3 9 Sudoeste 26 Oeste 0 -- -- 29
2020-05-06 13:00:00 23.4 11 Oeste 25 Oeste 0 -- -- 29
2020-05-06 12:00:00 21.2 6 Oeste 16 Oeste 0 -- -- 36
2020-05-06 11:00:00 17.5 4 Sudeste 9 Sudeste 0 -- -- 39
2020-05-06 10:00:00 13.1 4 Sudeste 8 Sudeste 0 -- -- 59
2020-05-06 09:00:00 7.9 3 Este 12 Este 0 -- -- 78
2020-05-06 08:00:00 4.2 2 Sur 4 Sur 0 -- -- 90
2020-05-06 07:00:00 3.1 0 Calma 5 Norte 0 -- -- 89
2020-05-06 06:00:00 4.1 2 Nordeste 5 Nordeste 0 -- -- 83
2020-05-06 05:00:00 4.6 0 Calma 5 Sudeste 0 -- -- 83
2020-05-06 04:00:00 5.2 0 Calma 5 Nordeste 0 -- -- 79
2020-05-06 03:00:00 6.1 0 Calma 4 Oeste 0 -- -- 76
2020-05-06 02:00:00 7.6 3 Este 6 Norte 0 -- -- 69
2020-05-06 01:00:00 8.7 0 Calma 5 Nordeste 0 -- -- 52
2020-05-06 00:00:00 10.3 0 Calma 7 Norte 0 -- -- 44
2020-05-05 23:00:00 12 4 Norte 9 Nordeste 0 -- -- 39
2020-05-05 22:00:00 14.9 0 Calma 8 Noroeste 0 -- -- 48
2020-05-05 21:00:00 17.6 4 Norte 12 Sur 0 -- -- 39
2020-05-05 20:00:00 20.8 4 Sudoeste 18 Sudoeste 0 -- -- 21
2020-05-05 19:00:00 21.8 11 Oeste 21 Oeste 0 -- -- 23
2020-05-05 18:00:00 21.9 9 Oeste 22 Oeste 0 -- -- 31
2020-05-05 17:00:00 22.7 13 Oeste 24 Oeste 0 -- -- 33
2020-05-05 16:00:00 23.7 10 Sudoeste 31 Sudoeste 0 -- -- 32
2020-05-05 15:00:00 23.8 13 Sudoeste 40 Sudoeste 0 -- -- 29
2020-05-05 14:00:00 24.9 14 Oeste 36 Sur 0 -- -- 23
2020-05-05 13:00:00 24.5 11 Oeste 30 Oeste 0 -- -- 33
2020-05-05 12:00:00 23.1 10 Oeste 32 Oeste 0 -- -- 33
2020-05-05 11:00:00 21 5 Oeste 15 Oeste 0 -- -- 52
2020-05-05 10:00:00 16.4 3 Sur 5 Sudeste 0 -- -- 66
2020-05-05 09:00:00 12 0 Calma 5 Este 0 -- -- 84
2020-05-05 08:00:00 9.6 2 Nordeste 4 Nordeste 0 -- -- 89
2020-05-05 07:00:00 9 2 Norte 5 Norte 0 -- -- 88
2020-05-05 06:00:00 9.5 0 Calma 3 Oeste 0 -- -- 87
2020-05-05 05:00:00 10.6 0 Calma 8 Este 0 -- -- 85
2020-05-05 04:00:00 11.8 0 Calma 9 Norte 0 -- -- 82
2020-05-05 03:00:00 12.9 4 Nordeste 6 Nordeste 0 -- -- 79
2020-05-05 02:00:00 13.7 0 Calma 6 Oeste 0 -- -- 76
2020-05-05 01:00:00 14.2 3 Norte 10 Norte 0 -- -- 71
2020-05-05 00:00:00 15.6 2 Este 9 Noroeste 0 -- -- 66
2020-05-04 23:00:00 17 4 Noroeste 9 Noroeste 0 -- -- 64
2020-05-04 22:00:00 18.8 2 Oeste 11 Sudoeste 0 -- -- 56
2020-05-04 21:00:00 21.8 4 Noroeste 18 Oeste 0 -- -- 46
2020-05-04 20:00:00 23.9 10 Oeste 29 Oeste 0 -- -- 38
2020-05-04 19:00:00 26.2 14 Oeste 30 Oeste 0 -- -- 35
2020-05-04 18:00:00 27.3 16 Oeste 41 Oeste 0 -- -- 37
2020-05-04 17:00:00 27.9 16 Oeste 41 Oeste 0 -- -- 35
2020-05-04 16:00:00 28 14 Oeste 37 Oeste 0 -- -- 35
2020-05-04 15:00:00 27.4 17 Oeste 35 Oeste 0 -- -- 36
2020-05-04 14:00:00 26.6 18 Oeste 34 Oeste 0 -- -- 36
2020-05-04 13:00:00 25.8 11 Oeste 22 Oeste 0 -- -- 37
2020-05-04 12:00:00 22.7 5 Este 15 Este 0 -- -- 51
2020-05-04 11:00:00 19.1 8 Este 16 Este 0 -- -- 58
2020-05-04 10:00:00 15 4 Este 12 Este 0 -- -- 73
2020-05-04 09:00:00 9.8 3 Este 9 Sudeste 0 -- -- 92
2020-05-04 08:00:00 7.3 4 Sur 8 Sudeste 0 -- -- 96
2020-05-04 07:00:00 6.9 4 Nordeste 5 Nordeste 0 -- -- 94
2020-05-04 06:00:00 7.3 0 Calma 5 Sudeste 0 -- -- 94
2020-05-04 05:00:00 7.7 2 Nordeste 2 Norte 0 -- -- 92
2020-05-04 04:00:00 8.5 0 Calma 3 Norte 0 -- -- 88
2020-05-04 03:00:00 9.5 0 Calma 6 Norte 0 -- -- 86
2020-05-04 02:00:00 10.3 0 Calma 6 Norte 0 -- -- 85
2020-05-04 01:00:00 11.4 3 Norte 8 Este 0 -- -- 79
2020-05-04 00:00:00 13 0 Calma 8 Nordeste 0 -- -- 74
2020-05-03 23:00:00 14.6 0 Calma 10 Noroeste 0 -- -- 69
2020-05-03 22:00:00 16.4 8 Norte 13 Norte 0 -- -- 62
2020-05-03 21:00:00 19.7 4 Noroeste 19 Sudoeste 0 -- -- 51
2020-05-03 20:00:00 22.1 9 Oeste 31 Oeste 0 -- -- 44
2020-05-03 19:00:00 24.4 14 Oeste 31 Oeste 0 -- -- 37
2020-05-03 18:00:00 26.1 13 Oeste 29 Oeste 0 -- -- 34
2020-05-03 17:00:00 26.1 14 Oeste 31 Oeste 0 -- -- 31
2020-05-03 16:00:00 26 15 Oeste 28 Oeste 0 -- -- 31
2020-05-03 15:00:00 24.9 12 Oeste 26 Oeste 0 -- -- 33
2020-05-03 14:00:00 24.1 8 Oeste 22 Oeste 0 -- -- 33
2020-05-03 13:00:00 22.7 8 Sudoeste 17 Oeste 0 -- -- 34
2020-05-03 12:00:00 19.7 4 Sudeste 10 Sudeste 0 -- -- 42
2020-05-03 11:00:00 16.8 5 Este 14 Este 0 -- -- 56
2020-05-03 10:00:00 10.8 3 Sudeste 6 Sudeste 0 -- -- 80
2020-05-03 09:00:00 6.8 2 Sur 5 Este 0 -- -- 92
2020-05-03 08:00:00 6 0 Calma 4 Nordeste 0 -- -- 92
2020-05-03 07:00:00 5.3 2 Nordeste 5 Nordeste 0 -- -- 93
2020-05-03 06:00:00 5.9 0 Calma 4 Nordeste 0 -- -- 90
2020-05-03 05:00:00 6.7 3 Este 7 Norte 0 -- -- 86
2020-05-03 04:00:00 7.3 0 Calma 5 Nordeste 0 -- -- 84
2020-05-03 03:00:00 8.3 2 Nordeste 5 Nordeste 0 -- -- 79
2020-05-03 02:00:00 9.6 3 Norte 12 Norte 0 -- -- 73
2020-05-03 01:00:00 10.9 3 Nordeste 9 Norte 0 -- -- 69
2020-05-03 00:00:00 12.3 4 Norte 9 Norte 0 -- -- 64